createdAt,value
2022-12-22T00:01:16.219Z,100095.41
2022-12-22T00:04:01.863Z,100091.13
2022-12-22T00:06:46.991Z,100086.59
2022-12-22T00:09:35.087Z,100080.41
2022-12-22T00:12:20.514Z,100079.31
2022-12-22T00:15:07.076Z,100079.09
2022-12-22T00:17:52.305Z,100078.53
2022-12-22T00:20:38.568Z,100078.81
2022-12-22T00:23:23.792Z,100069.16
2022-12-22T00:26:09.070Z,100069.13
2022-12-22T00:28:54.780Z,100065.38
2022-12-22T00:31:39.884Z,100063.78
2022-12-22T00:34:32.639Z,100060.31
2022-12-22T00:37:18.240Z,100047.69
2022-12-22T00:40:03.420Z,100045.56
2022-12-22T00:42:49.006Z,100037.25
2022-12-22T00:45:37.598Z,100031.91
2022-12-22T00:48:23.305Z,100034.56
2022-12-22T00:51:08.570Z,100034.81
2022-12-22T00:53:53.723Z,100026.75
2022-12-22T00:56:38.927Z,100026.00
2022-12-22T00:59:24.157Z,100024.66
2022-12-22T01:02:09.463Z,100030.84
2022-12-22T01:04:54.835Z,100027.59
2022-12-22T01:07:41.286Z,100026.81
2022-12-22T01:10:30.703Z,100026.28
2022-12-22T01:13:15.718Z,100027.88
2022-12-22T01:16:01.058Z,100019.84
2022-12-22T01:18:46.555Z,100017.41
2022-12-22T01:21:31.674Z,100012.34
2022-12-22T01:24:16.944Z,100010.72
2022-12-22T01:27:02.262Z,100006.69
2022-12-22T01:29:47.206Z,100016.34
2022-12-22T01:32:33.260Z,99997.88
2022-12-22T01:35:18.452Z,100007.50
2022-12-22T01:38:04.210Z,99993.03
2022-12-22T01:40:49.366Z,99985.78
2022-12-22T01:43:39.775Z,99991.38
2022-12-22T01:46:41.475Z,99990.84
2022-12-22T01:49:30.660Z,99985.22
2022-12-22T01:52:15.953Z,99987.09
2022-12-22T01:55:00.901Z,99988.69
2022-12-22T01:57:46.223Z,99974.78
2022-12-22T02:00:31.619Z,99983.63
2022-12-22T02:03:17.025Z,99974.00
2022-12-22T02:06:07.671Z,99973.47
2022-12-22T02:08:56.990Z,99976.41
2022-12-22T02:11:42.402Z,99967.28
2022-12-22T02:14:36.297Z,99959.28
2022-12-22T02:17:27.391Z,99957.09
2022-12-22T02:20:12.421Z,99955.78
2022-12-22T02:23:00.735Z,99959.28
2022-12-22T02:25:49.305Z,99959.78
2022-12-22T02:28:34.477Z,99951.78
2022-12-22T02:31:19.532Z,99948.03
2022-12-22T02:34:04.785Z,99944.25
2022-12-22T02:37:09.160Z,99941.03
2022-12-22T02:39:57.544Z,99936.22
2022-12-22T02:42:45.484Z,99933.00
2022-12-22T02:45:36.534Z,99930.84
2022-12-22T02:48:51.246Z,99925.22
2022-12-22T02:51:39.074Z,99919.59
2022-12-22T02:54:25.202Z,99908.63
2022-12-22T02:57:10.610Z,99908.06
2022-12-22T02:59:55.930Z,99897.09
2022-12-22T03:02:41.327Z,99893.06
2022-12-22T03:05:26.601Z,99878.31
2022-12-22T03:08:12.922Z,99879.66
2022-12-22T03:10:58.284Z,99873.50
2022-12-22T03:13:43.563Z,99874.06
2022-12-22T03:16:28.794Z,99884.50
2022-12-22T03:19:14.151Z,99867.31
2022-12-22T03:21:59.239Z,99877.78
2022-12-22T03:24:44.625Z,99872.97
2022-12-22T03:27:11.179Z,99862.00
2022-12-22T03:29:37.665Z,99851.56
2022-12-22T03:32:04.421Z,99865.50
2022-12-22T03:34:30.978Z,99860.09
2022-12-22T03:36:57.430Z,99859.28
2022-12-22T03:39:23.942Z,99853.66
2022-12-22T03:42:08.734Z,99847.50
2022-12-22T03:44:54.018Z,99848.31
2022-12-22T03:47:20.530Z,99841.09
2022-12-22T03:49:47.074Z,99849.38
2022-12-22T03:52:13.591Z,99853.13
2022-12-22T03:54:40.276Z,99853.16
2022-12-22T03:57:06.737Z,99836.50
2022-12-22T03:59:33.234Z,99832.50
2022-12-22T04:01:59.885Z,99833.28
2022-12-22T04:04:27.067Z,99824.19
2022-12-22T04:06:54.263Z,99835.72
2022-12-22T04:09:22.440Z,99826.88
2022-12-22T04:12:07.700Z,99832.25
2022-12-22T04:14:35.046Z,99817.50
2022-12-22T04:17:05.033Z,99822.06
2022-12-22T04:19:31.974Z,99825.25
2022-12-22T04:21:58.784Z,99822.56
2022-12-22T04:24:25.641Z,99809.19
2022-12-22T04:26:52.394Z,99802.72
2022-12-22T04:29:18.891Z,99812.63
2022-12-22T04:31:45.377Z,99794.16
2022-12-22T04:34:11.995Z,99801.44
2022-12-22T04:36:38.486Z,99795.78
2022-12-22T04:39:05.000Z,99791.47
2022-12-22T04:41:31.677Z,99800.06
2022-12-22T04:43:58.206Z,99791.50
2022-12-22T04:46:24.696Z,99793.94
2022-12-22T04:48:57.713Z,99781.88
2022-12-22T04:51:26.423Z,99780.25
2022-12-22T04:53:52.915Z,99777.59
2022-12-22T04:56:19.527Z,99764.75
2022-12-22T04:58:46.188Z,99767.13
2022-12-22T05:01:14.096Z,99776.84
2022-12-22T05:03:40.955Z,99782.75
2022-12-22T05:06:09.714Z,99776.88
2022-12-22T05:08:36.214Z,99776.06
2022-12-22T05:11:05.522Z,99775.00
2022-12-22T05:13:32.568Z,99774.97
2022-12-22T05:16:09.920Z,99779.81
2022-12-22T05:18:37.205Z,99772.06
2022-12-22T05:21:13.474Z,99773.91
2022-12-22T05:23:40.413Z,99769.63
2022-12-22T05:26:07.292Z,99766.94
2022-12-22T05:28:34.342Z,99764.25
2022-12-22T05:31:05.337Z,99754.59
2022-12-22T05:33:32.042Z,99759.16
2022-12-22T05:35:58.575Z,99767.44
2022-12-22T05:38:25.196Z,99757.50
2022-12-22T05:40:51.740Z,99745.97
2022-12-22T05:43:18.270Z,99759.88
2022-12-22T05:45:45.649Z,99750.78
2022-12-22T05:48:12.164Z,99756.69
2022-12-22T05:50:39.321Z,99755.88
2022-12-22T05:53:06.690Z,99751.84
2022-12-22T05:55:33.806Z,99742.19
2022-12-22T05:58:03.206Z,99745.63
2022-12-22T06:00:30.770Z,99744.28
2022-12-22T06:02:57.498Z,99748.03
2022-12-22T06:05:24.099Z,99748.03
2022-12-22T06:07:50.929Z,99753.94
2022-12-22T06:10:17.530Z,99755.25
2022-12-22T06:12:43.978Z,99755.22
2022-12-22T06:15:11.653Z,99751.19
2022-12-22T06:17:44.446Z,99747.44
2022-12-22T06:20:12.415Z,99756.50
2022-12-22T06:22:38.942Z,99751.22
2022-12-22T06:25:05.575Z,99758.19
2022-12-22T06:27:32.111Z,99755.50
2022-12-22T06:29:58.615Z,99750.19
2022-12-22T06:32:25.163Z,99745.38
2022-12-22T06:34:52.129Z,99754.00
2022-12-22T06:37:18.700Z,99751.31
2022-12-22T06:39:45.195Z,99757.72
2022-12-22T06:42:30.401Z,99753.44
2022-12-22T06:44:57.022Z,99746.97
2022-12-22T06:47:23.496Z,99735.41
2022-12-22T06:49:50.140Z,99747.44
2022-12-22T06:52:16.742Z,99746.34
2022-12-22T06:54:43.293Z,99746.34
2022-12-22T06:57:09.988Z,99741.00
2022-12-22T06:59:36.415Z,99736.19
2022-12-22T07:02:03.601Z,99748.03
2022-12-22T07:04:30.892Z,99746.97
2022-12-22T07:06:57.514Z,99750.22
2022-12-22T07:09:24.052Z,99755.56
2022-12-22T07:11:50.607Z,99762.00
2022-12-22T07:14:17.138Z,99763.03
2022-12-22T07:16:43.755Z,99764.63
2022-12-22T07:19:10.251Z,99772.63
2022-12-22T07:21:36.703Z,99777.44
2022-12-22T07:24:03.269Z,99772.31
2022-12-22T07:26:29.779Z,99779.25
2022-12-22T07:28:56.377Z,99775.22
2022-12-22T07:31:23.153Z,99785.09
2022-12-22T07:33:49.942Z,99778.38
2022-12-22T07:36:18.066Z,99780.28
2022-12-22T07:38:45.765Z,99781.59
2022-12-22T07:41:31.619Z,99775.16
2022-12-22T07:44:00.745Z,99789.09
2022-12-22T07:46:28.825Z,99779.94
2022-12-22T07:49:14.200Z,99777.47
2022-12-22T07:51:41.653Z,99776.38
2022-12-22T07:54:09.495Z,99783.63
2022-12-22T07:56:36.231Z,99771.78
2022-12-22T07:59:03.175Z,99782.25
2022-12-22T08:01:29.769Z,99773.63
2022-12-22T08:03:57.120Z,99777.66
2022-12-22T08:06:24.197Z,99775.81
2022-12-22T08:08:51.043Z,99780.09
2022-12-22T08:11:17.844Z,99778.66
2022-12-22T08:13:44.394Z,99780.72
2022-12-22T08:16:12.477Z,99797.31
2022-12-22T08:18:39.226Z,99789.22
2022-12-22T08:21:06.704Z,99780.53
2022-12-22T08:23:33.455Z,99786.88
2022-12-22T08:26:02.922Z,99779.59
2022-12-22T08:28:31.969Z,99786.28
2022-12-22T08:30:59.657Z,99790.00
2022-12-22T08:33:26.196Z,99782.22
2022-12-22T08:35:52.718Z,99769.03
2022-12-22T08:38:19.286Z,99778.56
2022-12-22T08:40:45.922Z,99776.88
2022-12-22T08:43:12.500Z,99778.94
2022-12-22T08:45:39.035Z,99776.69
2022-12-22T08:48:05.610Z,99778.59
2022-12-22T08:50:32.221Z,99777.03
2022-12-22T08:53:04.592Z,99782.25
2022-12-22T08:55:31.239Z,99776.97
2022-12-22T08:57:57.978Z,99785.09
2022-12-22T09:00:24.826Z,99780.75
2022-12-22T09:02:51.965Z,99781.22
2022-12-22T09:05:19.118Z,99773.84
2022-12-22T09:07:47.395Z,99781.00
2022-12-22T09:10:14.287Z,99777.69
2022-12-22T09:12:41.330Z,99776.59
2022-12-22T09:15:11.357Z,99784.13
2022-12-22T09:17:38.004Z,99788.56
2022-12-22T09:20:05.070Z,99786.84
2022-12-22T09:22:31.974Z,99789.28
2022-12-22T09:24:58.577Z,99794.56
2022-12-22T09:27:26.693Z,99793.25
2022-12-22T09:29:57.582Z,99797.34
2022-12-22T09:32:24.254Z,99796.53
2022-12-22T09:34:51.184Z,99792.00
2022-12-22T09:37:17.939Z,99799.50
2022-12-22T09:39:47.613Z,99801.09
2022-12-22T09:42:19.309Z,99812.88
2022-12-22T09:44:47.710Z,99808.38
2022-12-22T09:47:23.211Z,99814.88
2022-12-22T09:49:50.731Z,99813.25
2022-12-22T09:52:22.668Z,99830.25
2022-12-22T09:54:49.996Z,99831.34
2022-12-22T09:57:16.735Z,99838.03
2022-12-22T09:59:43.295Z,99845.47
2022-12-22T10:02:13.065Z,99854.38
2022-12-22T10:04:59.176Z,99865.66
2022-12-22T10:07:37.536Z,99861.09
2022-12-22T10:10:27.822Z,99857.28
2022-12-22T10:12:55.371Z,99855.66
2022-12-22T10:15:22.612Z,99868.50
2022-12-22T10:17:51.534Z,99860.97
2022-12-22T10:20:25.743Z,99869.03
2022-12-22T10:23:06.935Z,99862.59
2022-12-22T10:26:00.006Z,99876.00
2022-12-22T10:28:24.170Z,99870.34
2022-12-22T10:31:08.982Z,99867.38
2022-12-22T10:33:39.892Z,99868.16
2022-12-22T10:36:09.713Z,99880.25
2022-12-22T10:38:38.106Z,99881.81
2022-12-22T10:41:13.456Z,99888.78
2022-12-22T10:43:45.825Z,99889.25
2022-12-22T10:46:12.629Z,99882.81
2022-12-22T10:48:39.930Z,99886.56
2022-12-22T10:51:08.163Z,99887.09
2022-12-22T10:53:55.863Z,99897.03
2022-12-22T10:56:22.627Z,99888.94
2022-12-22T10:58:51.552Z,99899.38
2022-12-22T11:01:25.684Z,99897.47
2022-12-22T11:03:52.451Z,99911.19
2022-12-22T11:06:19.502Z,99908.41
2022-12-22T11:08:51.633Z,99915.91
2022-12-22T11:11:37.780Z,99919.41
2022-12-22T11:14:39.856Z,99920.25
2022-12-22T11:17:18.097Z,99938.59
2022-12-22T11:19:53.412Z,99932.16
2022-12-22T11:22:32.123Z,99922.00
2022-12-22T11:25:18.715Z,99948.25
2022-12-22T11:28:04.291Z,99939.41
2022-12-22T11:30:37.431Z,99948.88
2022-12-22T11:33:16.542Z,99953.19
2022-12-22T11:35:48.150Z,99962.03
2022-12-22T11:38:29.130Z,99960.69
2022-12-22T11:41:04.630Z,99960.22
2022-12-22T11:43:45.409Z,99967.22
2022-12-22T11:46:18.776Z,99981.72
2022-12-22T11:49:04.183Z,99982.31
2022-12-22T11:51:30.784Z,99982.56
2022-12-22T11:54:11.736Z,99975.34
2022-12-22T11:56:40.826Z,99978.63
2022-12-22T11:59:10.362Z,99988.00
2022-12-22T12:01:49.253Z,99990.94
2022-12-22T12:04:32.653Z,99998.47
2022-12-22T12:07:23.526Z,99996.06
2022-12-22T12:09:52.442Z,100010.84
2022-12-22T12:12:37.507Z,100004.91
2022-12-22T12:15:24.424Z,100012.44
2022-12-22T12:18:03.424Z,100021.03
2022-12-22T12:20:30.505Z,100033.41
2022-12-22T12:23:03.187Z,100023.44
2022-12-22T12:25:36.481Z,100026.13
2022-12-22T12:28:15.937Z,100034.47
2022-12-22T12:30:52.404Z,100025.84
2022-12-22T12:33:42.169Z,100030.09
2022-12-22T12:36:15.419Z,100046.78
2022-12-22T12:41:38.009Z,100034.16
2022-12-22T12:44:06.018Z,100042.22
2022-12-22T12:46:45.104Z,100051.09
2022-12-22T12:49:50.479Z,100062.66
2022-12-22T12:52:17.368Z,100058.41
2022-12-22T12:54:45.090Z,100064.00
2022-12-22T12:57:14.027Z,100062.91
2022-12-22T12:59:40.590Z,100070.13
2022-12-22T13:02:28.024Z,100062.34
2022-12-22T13:05:04.503Z,100069.84
2022-12-22T13:07:49.856Z,100074.13
2022-12-22T13:10:21.190Z,100077.59
2022-12-22T13:12:54.921Z,100078.91
2022-12-22T13:15:28.917Z,100079.66
2022-12-22T13:17:55.702Z,100079.38
2022-12-22T13:20:28.294Z,100086.00
2022-12-22T13:22:55.925Z,100085.94
2022-12-22T13:25:24.629Z,100091.06
2022-12-22T13:27:52.267Z,100095.88
2022-12-22T13:30:20.882Z,100096.88
2022-12-22T13:32:49.172Z,100095.69
2022-12-22T13:35:31.491Z,100096.63
2022-12-22T13:37:59.706Z,100090.00
2022-12-22T13:40:28.273Z,100088.69
2022-12-22T13:43:02.203Z,100082.56
2022-12-22T13:45:42.444Z,100097.59
2022-12-22T13:48:14.135Z,100099.16
2022-12-22T13:50:44.250Z,100111.56
2022-12-22T13:53:49.481Z,100112.53
2022-12-22T13:56:16.175Z,100106.50
2022-12-22T13:58:46.226Z,100111.75
2022-12-22T14:01:13.115Z,100113.75
2022-12-22T14:04:02.571Z,100122.69
2022-12-22T14:06:33.348Z,100127.31
2022-12-22T14:09:20.575Z,100125.81
2022-12-22T14:11:52.449Z,100139.31
2022-12-22T14:14:22.033Z,100136.72
2022-12-22T14:16:49.802Z,100139.72
2022-12-22T14:19:19.108Z,100142.16
2022-12-22T14:21:48.255Z,100148.06
2022-12-22T14:24:22.543Z,100148.06
2022-12-22T14:26:50.269Z,100158.25
2022-12-22T14:29:19.389Z,100160.66
2022-12-22T14:31:53.345Z,100156.13
2022-12-22T14:34:27.629Z,100167.16
2022-12-22T14:36:54.273Z,100165.00
2022-12-22T14:39:22.208Z,100160.41
2022-12-22T14:41:51.764Z,100163.06
2022-12-22T14:44:23.106Z,100160.94
2022-12-22T14:47:11.921Z,100173.56
2022-12-22T14:49:50.063Z,100165.00
2022-12-22T14:52:37.798Z,100159.34
2022-12-22T14:55:06.045Z,100161.00
2022-12-22T14:57:36.493Z,100166.91
2022-12-22T15:00:03.659Z,100160.44
2022-12-22T15:02:38.267Z,100163.66
2022-12-22T15:05:09.561Z,100165.25
2022-12-22T15:08:05.324Z,100168.50
2022-12-22T15:10:38.768Z,100169.63
2022-12-22T15:13:07.462Z,100166.72
2022-12-22T15:15:34.514Z,100163.00
2022-12-22T15:18:01.246Z,100169.19
2022-12-22T15:20:32.350Z,100171.41
2022-12-22T15:23:02.426Z,100166.84
2022-12-22T15:25:29.149Z,100175.44
2022-12-22T15:27:57.009Z,100174.38
2022-12-22T15:30:28.855Z,100175.19
2022-12-22T15:32:56.555Z,100177.34
2022-12-22T15:35:30.955Z,100182.19
2022-12-22T15:37:57.675Z,100173.63
2022-12-22T15:40:24.935Z,100183.88
2022-12-22T15:42:52.058Z,100167.75
2022-12-22T15:45:20.104Z,100161.84
2022-12-22T15:47:52.284Z,100173.13
2022-12-22T15:50:20.740Z,100170.16
2022-12-22T15:52:49.979Z,100168.56
2022-12-22T15:55:17.097Z,100172.06
2022-12-22T15:57:44.461Z,100163.50
2022-12-22T16:00:13.041Z,100164.03
2022-12-22T16:02:40.150Z,100160.03
2022-12-22T16:05:07.658Z,100154.91
2022-12-22T16:07:35.323Z,100149.56
2022-12-22T16:10:02.645Z,100145.28
2022-12-22T16:12:30.361Z,100148.75
2022-12-22T16:14:58.826Z,100152.78
2022-12-22T16:17:26.381Z,100153.03
2022-12-22T16:19:53.344Z,100157.59
2022-12-22T16:22:21.750Z,100147.44
2022-12-22T16:24:50.263Z,100146.91
2022-12-22T16:27:17.002Z,100143.69
2022-12-22T16:29:45.075Z,100138.31
2022-12-22T16:32:17.954Z,100133.25
2022-12-22T16:34:44.981Z,100131.38
2022-12-22T16:37:11.751Z,100135.66
2022-12-22T16:39:38.538Z,100124.38
2022-12-22T16:42:05.383Z,100124.13
2022-12-22T16:47:21.213Z,100112.06
2022-12-22T16:49:48.872Z,100121.16
2022-12-22T16:52:25.690Z,100121.19
2022-12-22T16:54:53.095Z,100123.31
2022-12-22T16:57:19.848Z,100122.78
2022-12-22T16:59:46.587Z,100123.88
2022-12-22T17:02:22.522Z,100124.41
2022-12-22T17:04:51.091Z,100120.09
2022-12-22T17:07:18.206Z,100116.88
2022-12-22T17:09:52.744Z,100122.78
2022-12-22T17:12:23.034Z,100116.06
2022-12-22T17:14:50.837Z,100112.34
2022-12-22T17:17:18.479Z,100108.81
2022-12-22T17:19:45.558Z,100106.97
2022-12-22T17:22:38.675Z,100099.97
2022-12-22T17:25:05.724Z,100104.81
2022-12-22T17:27:32.778Z,100098.91
2022-12-22T17:30:01.049Z,100093.81
2022-12-22T17:32:27.653Z,100091.97
2022-12-22T17:34:54.207Z,100094.88
2022-12-22T17:37:22.062Z,100090.88
2022-12-22T17:39:50.499Z,100085.25
2022-12-22T17:42:23.769Z,100085.50
2022-12-22T17:44:51.280Z,100079.59
2022-12-22T17:47:28.507Z,100081.44
2022-12-22T17:49:58.659Z,100069.63
2022-12-22T17:52:27.200Z,100074.50
2022-12-22T17:54:53.967Z,100067.53
2022-12-22T17:57:25.111Z,100057.56
2022-12-22T17:59:51.725Z,100059.47
2022-12-22T18:02:19.294Z,100054.09
2022-12-22T18:04:46.205Z,100045.25
2022-12-22T18:07:13.988Z,100051.41
2022-12-22T18:09:40.720Z,100034.22
2022-12-22T18:12:21.245Z,100031.03
2022-12-22T18:14:48.867Z,100027.81
2022-12-22T18:17:18.908Z,100021.38
2022-12-22T18:19:46.417Z,100025.13
2022-12-22T18:22:26.891Z,100022.91
2022-12-22T18:24:56.774Z,100024.50
2022-12-22T18:27:23.351Z,100015.94
2022-12-22T18:29:50.111Z,100013.00
2022-12-22T18:32:26.389Z,100015.66
2022-12-22T18:34:54.180Z,100010.56
2022-12-22T18:37:20.966Z,100007.09
2022-12-22T18:39:47.481Z,100002.50
2022-12-22T18:42:19.877Z,99999.81
2022-12-22T18:44:46.830Z,100003.06
2022-12-22T18:47:13.638Z,99996.66
2022-12-22T18:49:40.523Z,99994.22
2022-12-22T18:52:17.790Z,99998.28
2022-12-22T18:54:45.735Z,100000.44
2022-12-22T18:57:17.097Z,99989.41
2022-12-22T18:59:44.499Z,99984.34
2022-12-22T19:02:20.839Z,99987.56
2022-12-22T19:04:49.864Z,99995.88
2022-12-22T19:07:19.315Z,99990.25
2022-12-22T19:09:46.260Z,99987.28
2022-12-22T19:12:14.339Z,99988.09
2022-12-22T19:14:43.477Z,99989.19
2022-12-22T19:17:20.567Z,99985.19
2022-12-22T19:19:47.757Z,99992.94
2022-12-22T19:22:16.561Z,99982.22
2022-12-22T19:24:45.798Z,99977.38
2022-12-22T19:27:16.980Z,99972.59
2022-12-22T19:29:44.380Z,99973.13
2022-12-22T19:32:24.917Z,99971.00
2022-12-22T19:34:52.195Z,99977.44
2022-12-22T19:37:18.936Z,99974.50
2022-12-22T19:39:45.951Z,99969.94
2022-12-22T19:42:16.806Z,99965.66
2022-12-22T19:44:44.136Z,99961.09
2022-12-22T19:47:16.682Z,99959.78
2022-12-22T19:49:43.328Z,99952.53
2022-12-22T19:52:10.564Z,99954.91
2022-12-22T19:54:38.133Z,99943.69
2022-12-22T19:57:07.370Z,99934.84
2022-12-22T19:59:38.621Z,99935.13
2022-12-22T20:02:23.493Z,99935.91
2022-12-22T20:04:50.632Z,99934.03
2022-12-22T20:07:18.192Z,99930.31
2022-12-22T20:09:45.070Z,99920.09
2022-12-22T20:12:24.578Z,99916.38
2022-12-22T20:14:51.616Z,99912.59
2022-12-22T20:17:18.761Z,99905.84
2022-12-22T20:19:45.494Z,99908.53
2022-12-22T20:22:19.718Z,99897.28
2022-12-22T20:24:47.665Z,99908.84
2022-12-22T20:27:28.115Z,99904.28
2022-12-22T20:29:54.629Z,99895.16
2022-12-22T20:32:27.631Z,99890.34
2022-12-22T20:34:55.687Z,99886.09
2022-12-22T20:37:22.606Z,99885.31
2022-12-22T20:39:49.247Z,99884.22
2022-12-22T20:42:22.952Z,99883.44
2022-12-22T20:45:01.479Z,99888.22
2022-12-22T20:47:31.326Z,99883.66
2022-12-22T20:49:58.342Z,99873.47
2022-12-22T20:52:27.579Z,99874.00
2022-12-22T20:54:56.941Z,99872.91
2022-12-22T20:57:23.673Z,99867.03
2022-12-22T20:59:56.195Z,99866.75
2022-12-22T21:02:25.157Z,99859.53
2022-12-22T21:04:51.959Z,99858.47
2022-12-22T21:07:18.509Z,99855.81
2022-12-22T21:09:47.112Z,99849.91
2022-12-22T21:12:13.703Z,99841.06
2022-12-22T21:14:42.006Z,99839.47
2022-12-22T21:17:18.676Z,99841.34
2022-12-22T21:19:45.838Z,99829.22
2022-12-22T21:22:12.556Z,99820.94
2022-12-22T21:24:46.645Z,99812.84
2022-12-22T21:27:18.874Z,99820.94
2022-12-22T21:29:45.655Z,99816.88
2022-12-22T21:32:15.940Z,99819.88
2022-12-22T21:34:46.519Z,99810.28
2022-12-22T21:37:17.612Z,99811.34
2022-12-22T21:39:45.065Z,99814.03
2022-12-22T21:42:16.013Z,99808.13
2022-12-22T21:44:46.167Z,99808.13
2022-12-22T21:47:17.122Z,99792.03
2022-12-22T21:49:51.918Z,99783.75
2022-12-22T21:52:21.513Z,99778.16
2022-12-22T21:54:48.658Z,99777.84
2022-12-22T21:57:28.342Z,99763.13
2022-12-22T22:03:10.021Z,99761.53
2022-12-22T22:05:50.535Z,99750.28
2022-12-22T22:08:17.814Z,99754.59
2022-12-22T22:10:44.511Z,99755.91
2022-12-22T22:13:19.178Z,99750.81
2022-12-22T22:15:45.909Z,99745.97
2022-12-22T22:18:17.940Z,99747.06
2022-12-22T22:20:55.993Z,99745.38
2022-12-22T22:23:25.510Z,99742.44
2022-12-22T22:25:59.410Z,99745.94
2022-12-22T22:28:26.623Z,99745.44
2022-12-22T22:30:54.240Z,99747.28
2022-12-22T22:33:21.528Z,99751.28
2022-12-22T22:35:48.228Z,99745.09
2022-12-22T22:38:23.415Z,99752.84
2022-12-22T22:40:50.216Z,99748.56
2022-12-22T22:43:19.187Z,99759.28
2022-12-22T22:45:49.170Z,99755.75
2022-12-22T22:48:18.640Z,99763.50
2022-12-22T22:50:47.918Z,99759.50
2022-12-22T22:53:14.911Z,99751.19
2022-12-22T22:55:41.714Z,99750.13
2022-12-22T22:58:13.351Z,99751.75
2022-12-22T23:00:40.226Z,99740.78
2022-12-22T23:03:07.825Z,99733.56
2022-12-22T23:05:37.335Z,99736.25
2022-12-22T23:08:09.407Z,99729.53
2022-12-22T23:10:41.902Z,99711.03
2022-12-22T23:13:14.714Z,99713.19
2022-12-22T23:16:10.835Z,99708.88
2022-12-22T23:18:44.315Z,99709.38
2022-12-22T23:21:14.407Z,99704.50
2022-12-22T23:23:43.779Z,99698.56
2022-12-22T23:26:11.071Z,99690.63
2022-12-22T23:28:43.894Z,99688.06
2022-12-22T23:31:15.657Z,99681.91
2022-12-22T23:33:45.323Z,99681.66
2022-12-22T23:36:12.258Z,99672.53
2022-12-22T23:38:39.292Z,99675.97
2022-12-22T23:41:13.369Z,99664.41
2022-12-22T23:43:40.808Z,99656.34
2022-12-22T23:46:14.648Z,99655.25
2022-12-22T23:48:41.679Z,99646.69
2022-12-22T23:51:10.174Z,99647.28
2022-12-22T23:53:41.175Z,99652.63
2022-12-22T23:56:10.267Z,99649.97
2022-12-22T23:58:37.023Z,99652.13
